Time;durP1;ratioP1;P1;durP2;ratioP2;P2;SDS_P1;SDS_P2;PMS_P1;PMS_P2;Temp;Humidity;BMP_temperature;BMP_pressure;BME280_temperature;BME280_humidity;BME280_pressure;Samples;Min_cycle;Max_cycle;Signal;HPM_P1;HPM_P2
2022/04/27 00:00:20;;;;;;;;;;;;;;;7.58;80.85;96734.13;5082959;28;19958;-74
2022/04/27 00:02:46;;;;;;;;;;;;;;;7.55;80.47;96735.34;5116680;28;19952;-74
2022/04/27 00:05:12;;;;;;;;;;;;;;;7.45;79.56;96735.66;5116504;28;20354;-74
2022/04/27 00:07:38;;;;;;;;;;;;;;;7.40;80.33;96732.81;5116453;28;20412;-73
2022/04/27 00:10:05;;;;;;;;;;;;;;;7.35;81.06;96730.00;5116360;28;19963;-74
2022/04/27 00:12:33;;;;;;;;;;;;;;;7.26;80.82;96728.50;5116884;28;19949;-74
2022/04/27 00:14:59;;;;;;;;;;;;;;;7.18;80.86;96742.50;5116308;28;19959;-74
2022/04/27 00:17:25;;;;;;;;;;;;;;;7.18;81.87;96733.84;5098141;28;20026;-74
2022/04/27 00:19:51;;;;;;;;;;;;;;;7.23;82.31;96728.91;5116203;28;19999;-75
2022/04/27 00:22:17;;;;;;;;;;;;;;;7.29;82.03;96734.16;5098079;28;20012;-74
2022/04/27 00:24:43;;;;;;;;;;;;;;;7.35;81.75;96740.44;5115934;28;19976;-74
2022/04/27 00:27:09;;;;;;;;;;;;;;;7.42;82.11;96741.28;5116751;28;19970;-74
2022/04/27 00:29:34;;;;;;;;;;;;;;;7.43;81.51;96742.06;5115139;28;20026;-74
2022/04/27 00:32:00;;;;;;;;;;;;;;;7.42;81.41;96737.88;5116047;28;19999;-75
2022/04/27 00:34:26;;;;;;;;;;;;;;;7.44;81.28;96736.66;5116069;28;19946;-74
2022/04/27 00:36:52;;;;;;;;;;;;;;;7.46;81.25;96734.66;5097565;28;19958;-74
2022/04/27 00:39:18;;;;;;;;;;;;;;;7.45;82.18;96737.47;5115983;28;19957;-74
2022/04/27 00:41:59;;;;;;;;;;;;;;;7.43;81.43;96732.47;5080861;28;20313;-75
2022/04/27 00:44:28;;;;;;;;;;;;;;;7.45;81.70;96730.44;5115317;28;19976;-73
2022/04/27 00:46:54;;;;;;;;;;;;;;;7.46;81.69;96729.47;5115698;28;20328;-78
2022/04/27 00:49:21;;;;;;;;;;;;;;;7.47;82.08;96732.88;5115732;28;20405;-74
2022/04/27 00:51:47;;;;;;;;;;;;;;;7.49;82.61;96736.88;5115558;28;20420;-74
2022/04/27 00:54:13;;;;;;;;;;;;;;;7.50;82.76;96735.09;5115598;28;19959;-73
2022/04/27 00:56:40;;;;;;;;;;;;;;;7.51;81.92;96734.09;5115521;28;20445;-74
2022/04/27 00:59:32;;;;;;;;;;;;;;;7.51;83.21;96736.72;5085023;28;20355;-74
2022/04/27 01:01:58;;;;;;;;;;;;;;;7.53;82.59;96742.53;5115602;28;19953;-75
2022/04/27 01:04:23;;;;;;;;;;;;;;;7.53;83.07;96751.16;5115292;28;20437;-73
2022/04/27 01:06:49;;;;;;;;;;;;;;;7.54;82.59;96749.38;5080470;28;20491;-74
2022/04/27 01:09:17;;;;;;;;;;;;;;;7.51;82.30;96747.94;5115220;28;20058;-75
2022/04/27 01:11:43;;;;;;;;;;;;;;;7.51;81.73;96747.16;5115620;28;20442;-73
2022/04/27 01:14:09;;;;;;;;;;;;;;;7.49;82.27;96749.94;5115134;28;19953;-73
2022/04/27 01:16:35;;;;;;;;;;;;;;;7.49;81.99;96746.53;5115201;28;19991;-74
2022/04/27 01:19:01;;;;;;;;;;;;;;;7.49;81.81;96751.75;5079518;28;19954;-74
2022/04/27 01:21:27;;;;;;;;;;;;;;;7.50;81.71;96745.53;5115098;28;19958;-74
2022/04/27 01:23:53;;;;;;;;;;;;;;;7.49;81.39;96749.13;5115355;28;20012;-74
2022/04/27 01:26:20;;;;;;;;;;;;;;;7.47;81.34;96748.53;5114993;28;20404;-74
2022/04/27 01:28:46;;;;;;;;;;;;;;;7.44;81.71;96743.69;5115378;28;20439;-74
2022/04/27 01:31:12;;;;;;;;;;;;;;;7.40;81.16;96738.03;5115453;28;19957;-74
2022/04/27 01:33:38;;;;;;;;;;;;;;;7.36;80.59;96738.63;5114697;28;19962;-74
2022/04/27 01:36:05;;;;;;;;;;;;;;;7.31;80.72;96742.59;5114770;28;19961;-74
2022/04/27 01:38:34;;;;;;;;;;;;;;;7.27;80.52;96738.75;5114650;28;19952;-74
2022/04/27 01:41:01;;;;;;;;;;;;;;;7.22;80.40;96743.72;5114856;28;19960;-74
2022/04/27 01:43:26;;;;;;;;;;;;;;;7.19;80.63;96748.53;5114474;28;20307;-74
2022/04/27 01:45:52;;;;;;;;;;;;;;;7.19;80.91;96748.53;5096398;28;20021;-74
2022/04/27 01:48:19;;;;;;;;;;;;;;;7.17;81.05;96748.72;5115127;28;20418;-74
2022/04/27 01:50:45;;;;;;;;;;;;;;;7.14;80.90;96749.09;5114561;28;20065;-73
2022/04/27 01:55:55;;;;;;;;;;;;;;;7.09;80.88;96752.25;5103734;28;19974;-74
2022/04/27 01:58:22;;;;;;;;;;;;;;;7.06;81.16;96749.22;5114841;28;19966;-74
2022/04/27 02:00:48;;;;;;;;;;;;;;;7.04;80.89;96756.44;5096459;28;19958;-74
2022/04/27 02:03:14;;;;;;;;;;;;;;;7.01;80.96;96757.59;5114235;28;19979;-74
2022/04/27 02:05:44;;;;;;;;;;;;;;;7.00;81.06;96752.59;5114757;28;19969;-73
2022/04/27 02:08:10;;;;;;;;;;;;;;;6.98;80.91;96757.19;5114271;28;20326;-74
2022/04/27 02:10:37;;;;;;;;;;;;;;;6.98;81.22;96757.19;5114179;28;19951;-74
2022/04/27 02:13:07;;;;;;;;;;;;;;;6.97;81.51;96765.97;5114513;28;19954;-74
2022/04/27 02:15:34;;;;;;;;;;;;;;;6.97;81.84;96756.38;5101007;28;19952;-74
2022/04/27 02:18:00;;;;;;;;;;;;;;;6.96;81.90;96754.75;5114498;28;19962;-73
2022/04/27 02:20:26;;;;;;;;;;;;;;;6.95;81.98;96763.59;5095927;28;20436;-74
2022/04/27 02:22:52;;;;;;;;;;;;;;;6.97;82.21;96765.97;5114232;28;19957;-75
2022/04/27 02:25:18;;;;;;;;;;;;;;;6.98;82.28;96762.41;5113810;28;20339;-74
2022/04/27 02:27:44;;;;;;;;;;;;;;;7.00;82.94;96771.63;5114507;28;19953;-74
2022/04/27 02:30:10;;;;;;;;;;;;;;;7.00;83.42;96779.47;5113882;28;19956;-74
2022/04/27 02:32:37;;;;;;;;;;;;;;;7.02;83.75;96768.84;5113976;28;20405;-73
2022/04/27 02:35:03;;;;;;;;;;;;;;;7.02;83.70;96774.06;5113894;28;19957;-73
2022/04/27 02:37:30;;;;;;;;;;;;;;;7.03;84.49;96781.69;5114097;28;19950;-74
2022/04/27 02:39:57;;;;;;;;;;;;;;;7.01;84.17;96769.81;5095890;28;19957;-74
2022/04/27 02:42:23;;;;;;;;;;;;;;;7.01;84.35;96777.66;5113823;28;19964;-74
2022/04/27 02:44:49;;;;;;;;;;;;;;;7.01;84.31;96770.63;5113640;28;19972;-74
2022/04/27 02:47:15;;;;;;;;;;;;;;;7.02;84.27;96771.47;5113983;28;19953;-74
2022/04/27 02:52:25;;;;;;;;;;;;;;;7.03;83.93;96773.06;5113776;28;19963;-74
2022/04/27 02:54:51;;;;;;;;;;;;;;;7.07;84.14;96780.31;5096010;28;20392;-73
2022/04/27 02:57:17;;;;;;;;;;;;;;;7.10;84.08;96779.16;5113676;28;20421;-74
2022/04/27 02:59:43;;;;;;;;;;;;;;;7.11;83.83;96780.75;5113618;28;19972;-74
2022/04/27 03:02:09;;;;;;;;;;;;;;;7.14;84.10;96779.56;5095719;28;19958;-74
2022/04/27 03:04:35;;;;;;;;;;;;;;;7.15;84.10;96787.22;5113913;28;20070;-73
2022/04/27 03:07:01;;;;;;;;;;;;;;;7.16;84.21;96786.22;5116158;28;20385;-74
2022/04/27 03:09:27;;;;;;;;;;;;;;;7.18;84.49;96783.41;5117520;28;19961;-74
2022/04/27 03:11:53;;;;;;;;;;;;;;;7.19;84.51;96788.44;5117888;28;20076;-74
2022/04/27 03:14:19;;;;;;;;;;;;;;;7.17;84.85;96789.63;5099507;28;19965;-75
2022/04/27 03:16:45;;;;;;;;;;;;;;;7.12;84.15;96785.00;5117650;28;19952;-74
2022/04/27 03:19:11;;;;;;;;;;;;;;;7.08;84.46;96789.78;5117468;28;19957;-74
2022/04/27 03:21:37;;;;;;;;;;;;;;;7.09;84.29;96782.75;5099030;28;19962;-74
2022/04/27 03:24:03;;;;;;;;;;;;;;;7.10;84.52;96790.38;5117592;28;19959;-74
2022/04/27 03:26:29;;;;;;;;;;;;;;;7.14;84.65;96790.81;5117457;28;20317;-74
2022/04/27 03:28:55;;;;;;;;;;;;;;;7.17;84.93;96795.66;5117038;28;19969;-74
2022/04/27 03:31:30;;;;;;;;;;;;;;;7.16;85.14;96795.84;5117220;28;19954;-74
2022/04/27 03:33:56;;;;;;;;;;;;;;;7.09;85.44;96788.75;5117076;28;19950;-74
2022/04/27 03:36:22;;;;;;;;;;;;;;;7.05;85.12;96787.50;5117471;28;20377;-74
2022/04/27 03:38:48;;;;;;;;;;;;;;;7.08;85.49;96792.38;5117028;28;19955;-74
2022/04/27 03:41:17;;;;;;;;;;;;;;;7.09;85.06;96793.19;5117237;28;20323;-73
2022/04/27 03:43:44;;;;;;;;;;;;;;;7.08;85.11;96794.97;5116942;28;20417;-74
2022/04/27 03:46:10;;;;;;;;;;;;;;;7.10;85.12;96792.19;5116946;28;19983;-74
2022/04/27 03:48:36;;;;;;;;;;;;;;;7.11;85.33;96796.41;5098428;28;19960;-75
2022/04/27 03:51:02;;;;;;;;;;;;;;;7.05;85.08;96795.34;5098996;28;19953;-74
2022/04/27 03:53:28;;;;;;;;;;;;;;;7.03;85.22;96794.72;5116968;28;20004;-73
2022/04/27 03:55:54;;;;;;;;;;;;;;;7.05;85.25;96795.34;5116660;28;19998;-74
2022/04/27 03:58:19;;;;;;;;;;;;;;;7.09;85.49;96804.41;5116783;28;19965;-75
2022/04/27 04:00:45;;;;;;;;;;;;;;;7.14;85.74;96808.25;5116766;28;19965;-74
2022/04/27 04:03:11;;;;;;;;;;;;;;;7.16;85.43;96812.31;5116471;28;19973;-75
2022/04/27 04:05:37;;;;;;;;;;;;;;;7.20;85.01;96812.72;5116456;28;20026;-74
2022/04/27 04:08:04;;;;;;;;;;;;;;;7.24;85.05;96809.56;5116622;28;19970;-74
2022/04/27 04:10:30;;;;;;;;;;;;;;;7.27;85.25;96819.63;5116344;28;19955;-74
2022/04/27 04:12:56;;;;;;;;;;;;;;;7.28;85.39;96820.44;5115093;28;19962;-73
2022/04/27 04:15:22;;;;;;;;;;;;;;;7.24;85.18;96821.78;5116305;28;20330;-74
2022/04/27 04:17:48;;;;;;;;;;;;;;;7.20;85.08;96826.59;5115469;28;20000;-74
2022/04/27 04:20:17;;;;;;;;;;;;;;;7.18;85.10;96827.75;5098257;28;19957;-74
2022/04/27 04:22:43;;;;;;;;;;;;;;;7.16;85.21;96827.97;5116153;28;19954;-74
2022/04/27 04:31:03;;;;;;;;;;;;;;;7.23;85.62;96843.66;5097523;28;19979;-75
2022/04/27 04:33:29;;;;;;;;;;;;;;;7.25;85.85;96834.66;5083185;28;19945;-75
2022/04/27 04:35:55;;;;;;;;;;;;;;;7.28;85.81;96839.50;5116089;28;19949;-73
2022/04/27 04:38:21;;;;;;;;;;;;;;;7.29;85.68;96841.13;5115823;28;19956;-74
2022/04/27 04:40:47;;;;;;;;;;;;;;;7.31;85.92;96852.19;5116308;28;20315;-74
2022/04/27 04:43:13;;;;;;;;;;;;;;;7.34;86.05;96850.19;5115560;28;19958;-74
2022/04/27 04:45:39;;;;;;;;;;;;;;;7.35;85.99;96857.00;5097840;28;19973;-73
2022/04/27 04:48:06;;;;;;;;;;;;;;;7.35;85.88;96864.84;5097633;28;20412;-74
2022/04/27 04:50:31;;;;;;;;;;;;;;;7.35;85.96;96862.22;5115673;28;19959;-74
2022/04/27 04:52:57;;;;;;;;;;;;;;;7.36;86.59;96863.84;5115551;28;19958;-75
2022/04/27 04:55:23;;;;;;;;;;;;;;;7.37;86.27;96875.88;5115601;28;19949;-74
2022/04/27 04:57:49;;;;;;;;;;;;;;;7.38;86.35;96878.31;5115453;28;19970;-74
2022/04/27 05:00:15;;;;;;;;;;;;;;;7.38;86.90;96883.53;5097333;28;20005;-74
2022/04/27 05:02:41;;;;;;;;;;;;;;;7.38;86.71;96875.72;5097269;28;19969;-74
2022/04/27 05:05:07;;;;;;;;;;;;;;;7.37;86.09;96878.50;5115131;28;19982;-73
2022/04/27 05:07:33;;;;;;;;;;;;;;;7.35;86.86;96873.50;5096994;28;19958;-74
2022/04/27 05:09:59;;;;;;;;;;;;;;;7.35;87.10;96880.50;5114840;28;19968;-74
2022/04/27 05:12:25;;;;;;;;;;;;;;;7.38;87.00;96880.13;5115130;28;20008;-74
2022/04/27 05:14:51;;;;;;;;;;;;;;;7.41;86.74;96877.13;5097167;28;20092;-74
2022/04/27 05:17:17;;;;;;;;;;;;;;;7.42;86.91;96884.78;5115158;28;19973;-74
2022/04/27 05:19:43;;;;;;;;;;;;;;;7.43;87.29;96885.59;5115187;28;19958;-74
2022/04/27 05:22:09;;;;;;;;;;;;;;;7.43;87.21;96885.59;5115073;28;19957;-73
2022/04/27 05:24:34;;;;;;;;;;;;;;;7.45;86.95;96891.44;5114955;28;20369;-74
2022/04/27 05:27:01;;;;;;;;;;;;;;;7.48;86.74;96891.06;5114946;28;19987;-74
2022/04/27 05:32:19;;;;;;;;;;;;;;;7.47;86.06;96905.09;5090901;28;19961;-74
2022/04/27 05:34:45;;;;;;;;;;;;;;;7.45;86.59;96904.47;5114720;28;19957;-73
2022/04/27 05:37:12;;;;;;;;;;;;;;;7.46;86.46;96906.09;5113651;28;20287;-74
2022/04/27 05:39:38;;;;;;;;;;;;;;;7.49;86.95;96905.72;5115355;28;19955;-74
2022/04/27 05:42:04;;;;;;;;;;;;;;;7.51;85.82;96904.53;5096451;28;20045;-74
2022/04/27 05:44:31;;;;;;;;;;;;;;;7.56;85.99;96908.38;5096988;28;19983;-74
2022/04/27 05:46:57;;;;;;;;;;;;;;;7.59;86.34;96921.88;5114692;28;20349;-74
2022/04/27 05:49:24;;;;;;;;;;;;;;;7.60;86.65;96922.69;5114611;28;19958;-74
2022/04/27 05:51:50;;;;;;;;;;;;;;;7.63;86.38;96922.31;5114495;28;19954;-74
2022/04/27 05:54:16;;;;;;;;;;;;;;;7.63;86.03;96924.94;5097714;28;19959;-73
2022/04/27 05:56:42;;;;;;;;;;;;;;;7.62;87.31;96929.34;5114874;28;20424;-74
2022/04/27 05:59:09;;;;;;;;;;;;;;;7.66;86.82;96930.56;5114462;28;20301;-74
2022/04/27 06:01:35;;;;;;;;;;;;;;;7.69;87.05;96932.00;5114251;28;19976;-75
2022/04/27 06:04:01;;;;;;;;;;;;;;;7.73;87.21;96922.81;5114486;28;19987;-74
2022/04/27 06:06:26;;;;;;;;;;;;;;;7.75;87.04;96939.09;5096259;28;20033;-75
2022/04/27 06:08:53;;;;;;;;;;;;;;;7.79;87.11;96939.50;5095976;28;20328;-74
2022/04/27 06:11:19;;;;;;;;;;;;;;;7.82;86.64;96932.13;5114190;28;19966;-74
2022/04/27 06:13:46;;;;;;;;;;;;;;;7.87;86.88;96931.53;5114167;28;19960;-74
2022/04/27 06:16:15;;;;;;;;;;;;;;;7.91;86.55;96938.00;5114258;28;20410;-75
2022/04/27 06:18:42;;;;;;;;;;;;;;;7.95;85.78;96939.25;5113961;28;19953;-74
2022/04/27 06:21:08;;;;;;;;;;;;;;;7.98;86.00;96945.88;5114122;28;19960;-74
2022/04/27 06:23:34;;;;;;;;;;;;;;;8.01;85.98;96946.34;5113970;28;19957;-74
2022/04/27 06:26:00;;;;;;;;;;;;;;;8.06;85.48;96950.97;5113938;28;19974;-74
2022/04/27 06:28:26;;;;;;;;;;;;;;;8.10;85.64;96945.19;5114054;28;19959;-73
2022/04/27 06:30:52;;;;;;;;;;;;;;;8.14;86.22;96948.22;5113878;28;19965;-73
2022/04/27 06:33:18;;;;;;;;;;;;;;;8.19;85.53;96955.50;5113861;28;19961;-74
2022/04/27 06:35:44;;;;;;;;;;;;;;;8.22;85.23;96950.72;5113841;28;19978;-74
2022/04/27 06:38:10;;;;;;;;;;;;;;;8.25;84.99;96955.56;5113935;28;19959;-74
2022/04/27 06:40:36;;;;;;;;;;;;;;;8.31;85.32;96964.44;5114074;28;20322;-74
2022/04/27 06:43:02;;;;;;;;;;;;;;;8.32;84.56;96958.22;5083227;28;20009;-75
2022/04/27 06:45:31;;;;;;;;;;;;;;;8.32;84.37;96959.03;5117934;28;19982;-75
2022/04/27 06:47:57;;;;;;;;;;;;;;;8.34;85.25;96961.44;5118036;28;19954;-75
2022/04/27 06:50:23;;;;;;;;;;;;;;;8.38;84.52;96964.47;5118416;28;19959;-77
2022/04/27 06:52:50;;;;;;;;;;;;;;;8.41;84.79;96964.13;5118024;28;19970;-74
2022/04/27 06:55:16;;;;;;;;;;;;;;;8.40;83.76;96965.09;5118229;28;20311;-74
2022/04/27 06:57:43;;;;;;;;;;;;;;;8.39;84.78;96979.97;5117881;28;19956;-73
2022/04/27 07:00:10;;;;;;;;;;;;;;;8.37;83.81;96976.75;5117784;28;19961;-73
2022/04/27 07:02:37;;;;;;;;;;;;;;;8.37;84.27;96981.16;5117900;28;19952;-74
2022/04/27 07:05:03;;;;;;;;;;;;;;;8.39;84.52;96981.78;5118008;28;19984;-74
2022/04/27 07:07:29;;;;;;;;;;;;;;;8.43;84.33;96985.66;5117298;28;19969;-75
2022/04/27 07:09:55;;;;;;;;;;;;;;;8.71;88.54;96983.84;5117823;28;19972;-74
2022/04/27 07:12:21;;;;;;;;;;;;;;;9.14;84.30;96986.25;5117844;28;19952;-76
2022/04/27 07:14:51;;;;;;;;;;;;;;;9.32;83.05;96987.53;5099681;28;19966;-74
2022/04/27 07:17:17;;;;;;;;;;;;;;;9.47;82.04;96979.50;5117490;28;19961;-74
2022/04/27 07:19:43;;;;;;;;;;;;;;;9.49;80.85;96990.59;5099549;28;19948;-74
2022/04/27 07:22:10;;;;;;;;;;;;;;;9.47;80.13;96985.56;5117910;28;19956;-74
2022/04/27 07:24:37;;;;;;;;;;;;;;;9.45;81.12;96994.59;5116635;28;20331;-75
2022/04/27 07:27:03;;;;;;;;;;;;;;;9.43;80.70;96991.38;5117314;28;19988;-75
2022/04/27 07:29:29;;;;;;;;;;;;;;;9.45;80.46;96994.59;5117680;28;20371;-73
2022/04/27 07:31:55;;;;;;;;;;;;;;;9.54;80.87;96994.25;5118048;28;19955;-74
2022/04/27 07:34:21;;;;;;;;;;;;;;;9.82;80.70;96998.53;5117229;28;20426;-74
2022/04/27 07:36:46;;;;;;;;;;;;;;;10.59;79.75;97001.59;5117312;28;20008;-74
2022/04/27 07:39:12;;;;;;;;;;;;;;;11.42;76.09;96982.56;5117101;28;19999;-74
2022/04/27 07:41:38;;;;;;;;;;;;;;;11.93;74.85;96975.63;5117253;28;20490;-75
2022/04/27 07:44:06;;;;;;;;;;;;;;;12.28;73.27;96977.78;5116984;28;19958;-74
2022/04/27 07:46:32;;;;;;;;;;;;;;;12.24;71.83;96961.66;5116392;28;19988;-74
2022/04/27 07:48:58;;;;;;;;;;;;;;;12.37;71.69;96966.78;5117122;28;19964;-74
2022/04/27 07:51:24;;;;;;;;;;;;;;;12.15;71.79;96978.69;5116865;28;19958;-74
2022/04/27 07:53:50;;;;;;;;;;;;;;;11.71;69.81;96964.63;5115606;28;19980;-73
2022/04/27 07:56:16;;;;;;;;;;;;;;;11.31;71.12;96985.84;5098982;28;19960;-77
2022/04/27 07:58:42;;;;;;;;;;;;;;;11.04;72.48;96995.63;5116718;28;19966;-74
2022/04/27 08:01:08;;;;;;;;;;;;;;;10.81;73.91;97017.09;5116904;28;20051;-73
2022/04/27 08:03:34;;;;;;;;;;;;;;;10.62;74.23;97019.53;5116923;28;19993;-74
2022/04/27 08:06:03;;;;;;;;;;;;;;;10.46;74.21;97022.59;5098330;28;20018;-74
2022/04/27 08:08:29;;;;;;;;;;;;;;;10.31;74.81;97026.22;5116729;28;19964;-74
2022/04/27 08:11:14;;;;;;;;;;;;;;;10.19;75.73;97030.44;5106711;28;19953;-74
2022/04/27 08:13:40;;;;;;;;;;;;;;;10.13;74.59;97023.38;5117017;28;19981;-74
2022/04/27 08:16:10;;;;;;;;;;;;;;;10.14;75.51;97038.06;5116545;28;20409;-74
2022/04/27 08:18:45;;;;;;;;;;;;;;;10.15;75.76;97031.84;5116694;28;19960;-74
2022/04/27 08:21:14;;;;;;;;;;;;;;;10.15;76.62;97039.69;5098202;28;19960;-74
2022/04/27 08:23:41;;;;;;;;;;;;;;;10.14;74.50;97022.34;5116456;28;20418;-74
2022/04/27 08:26:08;;;;;;;;;;;;;;;10.08;76.18;97039.69;5116304;28;19979;-74
2022/04/27 08:28:34;;;;;;;;;;;;;;;10.08;75.68;97037.06;5116141;28;19964;-74
2022/04/27 08:31:00;;;;;;;;;;;;;;;10.08;76.63;97041.47;5116576;28;19955;-74
2022/04/27 08:33:26;;;;;;;;;;;;;;;10.10;76.73;97045.53;5116108;28;20069;-75
2022/04/27 08:35:57;;;;;;;;;;;;;;;10.11;76.24;97046.34;5116309;28;19968;-74
2022/04/27 08:38:23;;;;;;;;;;;;;;;10.12;76.15;97040.09;5116076;28;20317;-74
2022/04/27 08:40:49;;;;;;;;;;;;;;;10.11;75.35;97041.09;5116062;28;19966;-74
2022/04/27 08:43:15;;;;;;;;;;;;;;;10.18;75.80;97055.00;5115908;28;20322;-74
2022/04/27 08:45:42;;;;;;;;;;;;;;;10.33;75.54;97050.44;5116016;28;20002;-74
2022/04/27 08:48:09;;;;;;;;;;;;;;;10.61;75.82;97062.53;5115730;28;20148;-73
2022/04/27 08:50:36;;;;;;;;;;;;;;;10.81;75.00;97051.19;5115910;28;19965;-74
2022/04/27 08:53:02;;;;;;;;;;;;;;;10.88;74.70;97050.19;5115834;28;19956;-73
2022/04/27 08:55:28;;;;;;;;;;;;;;;10.92;73.47;97040.09;5115503;28;19958;-74
2022/04/27 08:58:05;;;;;;;;;;;;;;;10.93;73.26;97039.88;5115773;28;20500;-74
2022/04/27 09:00:30;;;;;;;;;;;;;;;10.96;73.90;97054.41;5103769;28;19957;-73
2022/04/27 09:03:16;;;;;;;;;;;;;;;10.92;73.01;97038.28;5115161;28;19957;-74
2022/04/27 09:06:00;;;;;;;;;;;;;;;10.76;71.66;97033.47;5098481;28;19988;-74
2022/04/27 09:08:35;;;;;;;;;;;;;;;10.71;73.31;97062.94;5115495;28;19959;-74
2022/04/27 09:11:11;;;;;;;;;;;;;;;10.66;74.29;97065.34;5115611;28;19955;-74
2022/04/27 09:13:37;;;;;;;;;;;;;;;10.64;74.65;97069.97;5115263;28;19971;-74
2022/04/27 09:16:03;;;;;;;;;;;;;;;10.64;73.75;97062.13;5115391;28;20046;-74
2022/04/27 09:21:58;;;;;;;;;;;;;;;10.63;73.10;97059.72;5036563;28;19958;-74
2022/04/27 09:24:25;;;;;;;;;;;;;;;10.65;73.64;97066.38;5099556;28;19967;-75
2022/04/27 09:27:00;;;;;;;;;;;;;;;10.69;73.70;97070.19;5115101;28;19980;-74
2022/04/27 09:29:26;;;;;;;;;;;;;;;10.83;73.47;97062.31;5115123;28;19962;-74
2022/04/27 09:31:56;;;;;;;;;;;;;;;10.88;70.42;97044.16;5115168;28;19966;-74
2022/04/27 09:34:28;;;;;;;;;;;;;;;11.01;71.60;97062.47;5115075;28;20340;-74
2022/04/27 09:36:55;;;;;;;;;;;;;;;11.26;67.72;97017.97;5115293;28;19962;-74
2022/04/27 09:39:25;;;;;;;;;;;;;;;11.50;70.14;97044.56;5115378;28;20427;-74
2022/04/27 09:41:51;;;;;;;;;;;;;;;11.61;69.02;97043.88;5114815;28;19962;-74
2022/04/27 09:44:28;;;;;;;;;;;;;;;11.77;69.67;97046.03;5114869;28;19961;-74
2022/04/27 09:47:20;;;;;;;;;;;;;;;12.14;67.71;97021.78;5060186;28;20354;-73
2022/04/27 09:49:53;;;;;;;;;;;;;;;12.15;68.74;97021.56;5114821;28;19965;-74
2022/04/27 09:52:19;;;;;;;;;;;;;;;12.04;67.64;97013.56;5114950;28;19953;-74
2022/04/27 09:54:46;;;;;;;;;;;;;;;11.89;69.04;97038.31;5114521;28;19980;-74
2022/04/27 09:57:15;;;;;;;;;;;;;;;11.81;69.30;97040.38;5114697;28;19963;-74
2022/04/27 09:59:41;;;;;;;;;;;;;;;11.77;68.95;97025.00;5114332;28;19962;-74
2022/04/27 10:02:08;;;;;;;;;;;;;;;11.78;67.68;97018.75;5114670;28;19966;-74
2022/04/27 10:04:36;;;;;;;;;;;;;;;11.95;68.29;97019.09;5114355;28;19989;-73
2022/04/27 10:07:03;;;;;;;;;;;;;;;12.19;66.96;97008.81;5114444;28;20003;-74
2022/04/27 10:09:31;;;;;;;;;;;;;;;12.37;67.75;97014.13;5114559;28;19956;-74
2022/04/27 10:11:59;;;;;;;;;;;;;;;12.36;66.05;97022.22;5114279;28;19958;-76
2022/04/27 10:14:25;;;;;;;;;;;;;;;12.31;64.89;96991.31;5114342;28;19954;-74
2022/04/27 10:16:52;;;;;;;;;;;;;;;12.26;65.04;97006.13;5113700;28;19956;-75
2022/04/27 10:19:18;;;;;;;;;;;;;;;12.27;63.93;96992.75;5114644;28;19956;-74
2022/04/27 10:21:57;;;;;;;;;;;;;;;12.49;65.96;97010.78;5114267;28;19955;-74
2022/04/27 10:24:37;;;;;;;;;;;;;;;12.66;63.29;96968.94;5114310;28;20436;-74
2022/04/27 10:27:15;;;;;;;;;;;;;;;12.51;59.86;96953.50;5105373;28;19986;-73
2022/04/27 10:29:43;;;;;;;;;;;;;;;12.30;60.20;96939.72;5114214;28;20297;-74
2022/04/27 10:32:09;;;;;;;;;;;;;;;12.17;59.40;96955.63;5113958;28;20410;-74
2022/04/27 10:34:35;;;;;;;;;;;;;;;12.18;62.06;96973.03;5114088;28;20010;-74
2022/04/27 10:37:03;;;;;;;;;;;;;;;12.24;60.97;96966.06;5095874;28;20043;-74
2022/04/27 10:39:29;;;;;;;;;;;;;;;12.24;59.64;96956.38;5114413;28;19955;-74
2022/04/27 10:41:58;;;;;;;;;;;;;;;12.18;60.38;96960.66;5113373;28;19956;-74
2022/04/27 10:44:43;;;;;;;;;;;;;;;12.11;59.61;96957.28;5114265;28;19954;-74
2022/04/27 10:47:17;;;;;;;;;;;;;;;12.05;60.11;96954.69;5113706;28;19965;-73
2022/04/27 10:49:46;;;;;;;;;;;;;;;12.01;60.54;96971.91;5114118;28;19959;-74
2022/04/27 10:52:12;;;;;;;;;;;;;;;12.02;63.52;97013.78;5114045;28;19979;-74
2022/04/27 10:54:39;;;;;;;;;;;;;;;12.03;61.38;96990.91;5113768;28;20394;-73
2022/04/27 10:57:14;;;;;;;;;;;;;;;12.04;62.03;96992.53;5113687;28;19962;-73
2022/04/27 10:59:59;;;;;;;;;;;;;;;12.12;61.97;96989.66;5113946;28;19948;-73
2022/04/27 11:02:35;;;;;;;;;;;;;;;12.21;60.21;96977.03;5113766;28;19959;-74
2022/04/27 11:05:05;;;;;;;;;;;;;;;12.18;61.77;96997.47;5113870;28;19982;-74
2022/04/27 11:07:31;;;;;;;;;;;;;;;12.11;60.92;96988.81;5113922;28;19976;-74
2022/04/27 11:09:59;;;;;;;;;;;;;;;12.01;60.32;96978.00;5113704;28;19955;-75
2022/04/27 11:12:26;;;;;;;;;;;;;;;12.00;61.67;96992.16;5095606;28;20329;-74
2022/04/27 11:15:01;;;;;;;;;;;;;;;11.98;60.94;96988.94;5113760;28;19964;-74
2022/04/27 11:17:34;;;;;;;;;;;;;;;12.05;63.49;97025.69;5113822;28;19947;-74
2022/04/27 11:20:00;;;;;;;;;;;;;;;12.05;59.76;96971.28;5113828;28;19968;-76
2022/04/27 11:22:27;;;;;;;;;;;;;;;12.00;60.89;97000.03;5113760;28;19960;-75
2022/04/27 11:24:55;;;;;;;;;;;;;;;12.12;62.38;97006.22;5113423;28;20339;-74
2022/04/27 11:27:22;;;;;;;;;;;;;;;12.29;59.71;96984.66;5115532;28;19988;-74
2022/04/27 11:29:49;;;;;;;;;;;;;;;12.31;59.60;96980.78;5117360;28;19962;-74
2022/04/27 11:32:16;;;;;;;;;;;;;;;12.45;61.01;96999.06;5117387;28;19976;-74
2022/04/27 11:34:46;;;;;;;;;;;;;;;12.53;56.88;96941.72;5099593;28;20410;-74
2022/04/27 11:37:19;;;;;;;;;;;;;;;12.51;58.26;96953.50;5117213;28;19966;-74
2022/04/27 11:39:46;;;;;;;;;;;;;;;12.53;60.79;96994.34;5117542;28;19960;-74
2022/04/27 11:42:12;;;;;;;;;;;;;;;12.46;57.83;96967.31;5117061;28;19953;-74
2022/04/27 11:45:00;;;;;;;;;;;;;;;12.31;57.06;96966.84;5098956;28;19955;-74
2022/04/27 11:47:27;;;;;;;;;;;;;;;12.24;57.64;96977.41;5117193;28;19949;-75
2022/04/27 11:50:00;;;;;;;;;;;;;;;12.20;58.04;96973.63;5116908;28;19959;-74
2022/04/27 11:52:26;;;;;;;;;;;;;;;12.19;56.17;96954.38;5116912;28;19964;-74
2022/04/27 11:55:00;;;;;;;;;;;;;;;12.29;59.22;96985.47;5117141;28;19977;-74
2022/04/27 11:57:26;;;;;;;;;;;;;;;12.37;56.76;96948.38;5116935;28;20412;-75
2022/04/27 11:59:52;;;;;;;;;;;;;;;12.43;58.40;96978.28;5116913;28;19955;-74
2022/04/27 12:02:25;;;;;;;;;;;;;;;12.60;57.69;96978.53;5116301;28;19956;-74
2022/04/27 12:04:56;;;;;;;;;;;;;;;12.78;55.36;96936.41;5116814;28;19983;-74
2022/04/27 12:07:22;;;;;;;;;;;;;;;12.91;58.60;96985.47;5117272;28;19992;-74
2022/04/27 12:10:00;;;;;;;;;;;;;;;13.03;55.20;96935.53;5116994;28;19955;-74
2022/04/27 12:12:26;;;;;;;;;;;;;;;12.91;55.48;96948.59;5116651;28;20421;-74
2022/04/27 12:14:53;;;;;;;;;;;;;;;12.87;55.34;96933.47;5116578;28;19965;-74
2022/04/27 12:17:37;;;;;;;;;;;;;;;12.88;57.96;96974.59;5116367;28;19955;-74
2022/04/27 12:20:03;;;;;;;;;;;;;;;12.80;54.49;96934.34;5116404;28;19954;-74
2022/04/27 12:22:29;;;;;;;;;;;;;;;12.69;55.83;96957.97;5115524;28;19957;-74
2022/04/27 12:25:00;;;;;;;;;;;;;;;12.58;54.37;96935.84;5116219;28;19964;-77
2022/04/27 12:27:26;;;;;;;;;;;;;;;12.55;56.50;96967.81;5116331;28;19983;-73
2022/04/27 12:30:02;;;;;;;;;;;;;;;12.47;55.48;96952.31;5116189;28;19967;-74
2022/04/27 12:32:32;;;;;;;;;;;;;;;12.52;56.75;96968.28;5115755;28;19947;-74
2022/04/27 12:37:54;;;;;;;;;;;;;;;12.57;55.15;96928.94;5109088;28;20331;-74
2022/04/27 12:40:20;;;;;;;;;;;;;;;12.86;55.00;96935.31;5097380;28;19972;-74
2022/04/27 12:42:59;;;;;;;;;;;;;;;13.13;56.34;96945.53;5115860;28;19966;-74
2022/04/27 12:45:25;;;;;;;;;;;;;;;13.17;53.96;96915.91;5116233;28;19957;-75
2022/04/27 12:47:51;;;;;;;;;;;;;;;13.12;54.99;96936.84;5116130;28;20363;-74
2022/04/27 12:50:18;;;;;;;;;;;;;;;12.93;55.16;96930.75;5116216;28;19956;-74
2022/04/27 12:52:46;;;;;;;;;;;;;;;12.83;56.00;96937.56;5115881;28;19955;-74
2022/04/27 12:55:12;;;;;;;;;;;;;;;12.79;56.61;96948.56;5115581;28;20346;-74
2022/04/27 12:57:45;;;;;;;;;;;;;;;12.76;56.74;96951.59;5115714;28;19961;-74
2022/04/27 13:00:11;;;;;;;;;;;;;;;12.87;56.79;96942.19;5115716;28;19973;-74
2022/04/27 13:02:37;;;;;;;;;;;;;;;13.21;55.39;96924.16;5115533;28;19953;-74
2022/04/27 13:05:04;;;;;;;;;;;;;;;13.60;56.48;96951.03;5115811;28;20000;-74
2022/04/27 13:07:30;;;;;;;;;;;;;;;13.81;54.04;96900.41;5115475;28;19978;-73
2022/04/27 13:12:41;;;;;;;;;;;;;;;13.60;52.43;96909.66;5109094;28;19980;-74
2022/04/27 13:15:07;;;;;;;;;;;;;;;13.46;53.84;96907.44;5115486;28;20021;-74
2022/04/27 13:17:33;;;;;;;;;;;;;;;13.24;53.27;96899.22;5115702;28;19965;-74